createdAt,value
2019-01-03T00:01:06.225Z,9.10
2019-01-03T00:02:35.333Z,8.75
2019-01-03T00:04:07.474Z,7.95
2019-01-03T00:05:29.254Z,8.75
2019-01-03T00:18:56.166Z,12.50
2019-01-03T00:20:26.527Z,7.97
2019-01-03T00:21:41.526Z,12.93
2019-01-03T00:23:03.522Z,7.67
2019-01-03T00:24:26.374Z,8.28
2019-01-03T00:25:50.310Z,8.73
2019-01-03T00:27:07.342Z,8.43
2019-01-03T00:28:35.872Z,9.40
2019-01-03T00:30:01.689Z,6.47
2019-01-03T00:31:40.061Z,9.80
2019-01-03T00:33:15.390Z,7.78
2019-01-03T00:34:28.797Z,10.38
2019-01-03T00:36:02.135Z,8.28
2019-01-03T00:37:31.570Z,10.03
2019-01-03T00:38:57.689Z,10.70
2019-01-03T00:40:10.781Z,8.45
2019-01-03T00:41:32.851Z,7.58
2019-01-03T00:42:55.043Z,10.70
2019-01-03T00:44:21.547Z,10.05
2019-01-03T00:45:53.188Z,6.03
2019-01-03T00:47:14.296Z,7.83
2019-01-03T00:48:36.333Z,9.45
2019-01-03T00:50:04.927Z,8.53
2019-01-03T00:51:40.438Z,9.83
2019-01-03T00:52:57.641Z,8.55
2019-01-03T00:54:30.700Z,7.12
2019-01-03T00:55:57.131Z,5.35
2019-01-03T00:57:23.625Z,8.70
2019-01-03T00:58:45.690Z,7.33
2019-01-03T01:00:06.310Z,8.55
2019-01-03T01:01:28.554Z,7.87
2019-01-03T01:03:06.861Z,7.45
2019-01-03T01:04:45.137Z,11.43
2019-01-03T01:05:57.750Z,9.25
2019-01-03T01:07:16.469Z,8.40
2019-01-03T01:08:42.726Z,8.20
2019-01-03T01:10:06.079Z,8.35
2019-01-03T01:11:35.938Z,9.60
2019-01-03T01:13:01.602Z,8.35
2019-01-03T01:14:23.501Z,6.92
2019-01-03T01:16:01.974Z,9.10
2019-01-03T01:17:25.410Z,5.10
2019-01-03T01:18:55.445Z,6.72
2019-01-03T01:20:15.782Z,6.50
2019-01-03T01:21:37.806Z,8.75
2019-01-03T01:22:59.845Z,8.18
2019-01-03T01:24:19.419Z,11.53
2019-01-03T01:25:49.700Z,9.33
2019-01-03T01:27:11.809Z,6.78
2019-01-03T01:28:38.237Z,9.00
2019-01-03T01:30:00.242Z,11.75
2019-01-03T01:31:23.595Z,13.40
2019-01-03T01:32:45.559Z,9.33
2019-01-03T01:34:14.729Z,6.55
2019-01-03T01:35:35.281Z,8.05
2019-01-03T01:36:57.238Z,11.25
2019-01-03T01:38:19.255Z,13.28
2019-01-03T01:39:49.872Z,8.55
2019-01-03T01:41:11.722Z,7.97
2019-01-03T01:42:28.444Z,7.90
2019-01-03T01:43:58.054Z,7.37
2019-01-03T01:45:34.337Z,9.65
2019-01-03T01:47:03.771Z,11.60
2019-01-03T01:48:25.817Z,9.80
2019-01-03T01:49:45.594Z,8.38
2019-01-03T01:51:12.294Z,9.23
2019-01-03T01:52:34.357Z,9.75
2019-01-03T01:54:06.134Z,8.88
2019-01-03T01:55:28.169Z,6.33
2019-01-03T01:56:52.046Z,7.70
2019-01-03T01:58:15.398Z,6.70
2019-01-03T01:59:49.363Z,9.55
2019-01-03T02:01:11.401Z,8.45
2019-01-03T02:02:33.604Z,5.60
2019-01-03T02:04:03.118Z,11.18
2019-01-03T02:05:32.550Z,8.25
2019-01-03T02:07:07.715Z,6.47
2019-01-03T02:08:29.625Z,9.68
2019-01-03T02:09:52.175Z,8.25
2019-01-03T02:11:17.077Z,8.25
2019-01-03T02:12:53.650Z,10.80
2019-01-03T02:14:15.701Z,9.15
2019-01-03T02:15:34.809Z,9.83
2019-01-03T02:16:56.806Z,8.65
2019-01-03T02:18:16.210Z,9.63
2019-01-03T02:19:40.178Z,8.53
2019-01-03T02:21:12.643Z,10.53
2019-01-03T02:22:42.033Z,10.38
2019-01-03T02:24:03.849Z,6.50
2019-01-03T02:25:36.377Z,9.58
2019-01-03T02:27:11.437Z,10.00
2019-01-03T02:28:34.805Z,8.58
2019-01-03T02:29:56.593Z,7.72
2019-01-03T02:31:18.368Z,8.23
2019-01-03T02:32:40.221Z,8.95
2019-01-03T02:34:05.709Z,7.58
2019-01-03T02:35:27.734Z,4.70
2019-01-03T02:37:03.163Z,9.65
2019-01-03T02:38:24.877Z,8.18
2019-01-03T02:39:54.321Z,6.80
2019-01-03T02:41:29.759Z,8.55
2019-01-03T02:42:51.577Z,7.78
2019-01-03T02:44:13.738Z,9.35
2019-01-03T02:45:35.765Z,8.80
2019-01-03T02:47:17.322Z,8.58
2019-01-03T02:48:46.299Z,6.45
2019-01-03T02:50:03.433Z,6.55
2019-01-03T02:51:31.682Z,8.23
2019-01-03T02:52:48.084Z,9.80
2019-01-03T02:54:29.631Z,10.40
2019-01-03T02:55:54.051Z,8.73
2019-01-03T02:57:16.157Z,4.35
2019-01-03T02:58:37.798Z,6.80
2019-01-03T03:00:09.865Z,6.20
2019-01-03T03:01:25.377Z,9.63
2019-01-03T03:02:47.201Z,8.80
2019-01-03T03:04:19.674Z,6.22
2019-01-03T03:05:43.281Z,10.55
2019-01-03T03:07:16.841Z,7.03
2019-01-03T03:08:38.957Z,7.25
2019-01-03T03:10:08.407Z,5.90
2019-01-03T03:11:40.132Z,7.40
2019-01-03T03:13:02.194Z,8.15
2019-01-03T03:14:36.310Z,9.53
2019-01-03T03:15:52.963Z,6.25
2019-01-03T03:17:15.669Z,6.70
2019-01-03T03:18:26.821Z,8.40
2019-01-03T03:19:51.724Z,7.95
2019-01-03T03:21:17.938Z,10.40
2019-01-03T03:22:36.342Z,6.80
2019-01-03T03:23:51.230Z,6.58
2019-01-03T03:25:13.425Z,6.97
2019-01-03T03:26:34.170Z,7.92
2019-01-03T03:27:55.941Z,12.80
2019-01-03T03:29:18.081Z,10.88
2019-01-03T03:30:58.179Z,12.13
2019-01-03T03:32:20.246Z,10.68
2019-01-03T03:33:46.654Z,7.00
2019-01-03T03:35:04.677Z,5.90
2019-01-03T03:36:43.003Z,8.13
2019-01-03T03:38:04.737Z,8.48
2019-01-03T03:39:26.744Z,9.75
2019-01-03T03:40:48.914Z,7.42
2019-01-03T03:42:22.609Z,6.95
2019-01-03T03:43:42.395Z,7.22
2019-01-03T03:44:55.901Z,6.92
2019-01-03T03:46:18.046Z,10.50
2019-01-03T03:47:35.242Z,8.48
2019-01-03T03:48:57.157Z,9.68
2019-01-03T03:50:19.337Z,9.65
2019-01-03T03:51:48.459Z,10.60
2019-01-03T03:53:17.618Z,8.68
2019-01-03T03:54:39.763Z,10.72
2019-01-03T03:55:58.690Z,14.03
2019-01-03T03:57:22.054Z,12.70
2019-01-03T03:58:54.370Z,12.18
2019-01-03T04:00:16.199Z,8.85
2019-01-03T04:01:39.537Z,5.62
2019-01-03T04:03:14.792Z,8.83
2019-01-03T04:04:36.527Z,6.58
2019-01-03T04:06:06.597Z,10.95
2019-01-03T04:07:28.310Z,8.43
2019-01-03T04:08:50.397Z,5.33
2019-01-03T04:10:15.696Z,9.40
2019-01-03T04:11:41.771Z,9.25
2019-01-03T04:13:20.353Z,8.43
2019-01-03T04:14:43.725Z,10.05
2019-01-03T04:16:14.157Z,9.05
2019-01-03T04:17:26.150Z,7.33
2019-01-03T04:18:48.445Z,6.70
2019-01-03T04:20:10.481Z,9.48
2019-01-03T04:21:32.478Z,8.53
2019-01-03T04:22:54.174Z,6.90
2019-01-03T04:24:14.610Z,9.70
2019-01-03T04:25:37.071Z,5.28
2019-01-03T04:26:59.113Z,11.75
2019-01-03T04:28:29.044Z,7.40
2019-01-03T04:29:50.849Z,9.48
2019-01-03T04:31:23.187Z,7.90
2019-01-03T04:32:49.530Z,6.58
2019-01-03T04:34:08.267Z,6.33
2019-01-03T04:35:30.133Z,7.83
2019-01-03T04:36:51.959Z,12.35
2019-01-03T04:38:15.314Z,6.35
2019-01-03T04:39:43.478Z,9.18
2019-01-03T04:41:07.438Z,8.03
2019-01-03T04:42:29.162Z,9.93
2019-01-03T04:43:51.451Z,5.72
2019-01-03T04:45:23.972Z,5.60
2019-01-03T04:46:47.323Z,8.63
2019-01-03T04:48:22.745Z,5.55
2019-01-03T04:49:46.426Z,9.60
2019-01-03T04:51:09.772Z,10.78
2019-01-03T04:52:31.478Z,7.55
2019-01-03T04:54:06.259Z,9.15
2019-01-03T04:55:38.515Z,9.03
2019-01-03T04:57:00.291Z,10.32
2019-01-03T04:58:22.305Z,10.65
2019-01-03T04:59:47.165Z,8.25
2019-01-03T05:01:18.189Z,8.50
2019-01-03T05:02:54.175Z,8.25
2019-01-03T05:04:20.626Z,12.45
2019-01-03T05:05:46.605Z,11.20
2019-01-03T05:07:08.410Z,10.75
2019-01-03T05:08:37.881Z,12.78
2019-01-03T05:10:07.280Z,13.25
2019-01-03T05:11:29.318Z,8.03
2019-01-03T05:12:59.461Z,8.43
2019-01-03T05:14:21.537Z,12.10
2019-01-03T05:15:36.717Z,10.38
2019-01-03T05:16:58.529Z,11.60
2019-01-03T05:18:36.741Z,10.60
2019-01-03T05:20:09.045Z,8.68
2019-01-03T05:21:47.655Z,12.80
2019-01-03T05:23:09.649Z,9.45
2019-01-03T05:24:31.823Z,12.35
2019-01-03T05:25:55.178Z,9.70
2019-01-03T05:27:18.535Z,7.90
2019-01-03T05:28:31.022Z,10.53
2019-01-03T05:29:58.684Z,11.48
2019-01-03T05:31:19.131Z,12.53
2019-01-03T05:32:39.070Z,12.18
2019-01-03T05:34:13.781Z,11.57
2019-01-03T05:35:34.668Z,10.08
2019-01-03T05:37:16.011Z,9.68
2019-01-03T05:38:46.047Z,10.60
2019-01-03T05:40:09.500Z,10.32
2019-01-03T05:41:25.475Z,12.23
2019-01-03T05:42:44.850Z,12.82
2019-01-03T05:44:10.406Z,13.28
2019-01-03T05:45:32.337Z,9.78
2019-01-03T05:47:03.557Z,9.08
2019-01-03T05:48:32.793Z,14.35
2019-01-03T05:49:57.109Z,15.53
2019-01-03T05:51:18.947Z,11.03
2019-01-03T05:52:36.082Z,9.75
2019-01-03T05:53:58.201Z,10.00
2019-01-03T05:55:22.844Z,14.95
2019-01-03T05:56:44.741Z,12.80
2019-01-03T05:58:14.186Z,14.43
2019-01-03T05:59:36.034Z,12.58
2019-01-03T06:00:58.243Z,10.50
2019-01-03T06:02:20.250Z,15.08
2019-01-03T06:03:52.724Z,14.75
2019-01-03T06:05:16.081Z,13.13
2019-01-03T06:06:51.252Z,11.48
2019-01-03T06:08:14.856Z,11.97
2019-01-03T06:09:34.249Z,12.50
2019-01-03T06:11:09.560Z,13.60
2019-01-03T06:12:26.841Z,15.32
2019-01-03T06:13:50.270Z,15.00
2019-01-03T06:15:12.311Z,11.48
2019-01-03T06:16:30.728Z,14.05
2019-01-03T06:17:52.906Z,11.12
2019-01-03T06:19:16.332Z,15.60
2019-01-03T06:20:42.865Z,17.02
2019-01-03T06:21:57.899Z,14.30
2019-01-03T06:23:19.484Z,15.38
2019-01-03T06:24:55.841Z,14.65
2019-01-03T06:26:22.218Z,14.07
2019-01-03T06:27:48.725Z,14.47
2019-01-03T06:29:12.257Z,12.45
2019-01-03T06:30:47.878Z,18.12
2019-01-03T06:32:06.832Z,14.90
2019-01-03T06:33:29.091Z,19.90
2019-01-03T06:34:51.196Z,19.95
2019-01-03T06:36:13.365Z,21.10
2019-01-03T06:37:35.458Z,18.27
2019-01-03T06:38:57.586Z,24.77
2019-01-03T06:40:13.888Z,26.07
2019-01-03T06:41:43.155Z,23.85
2019-01-03T06:43:21.449Z,19.90
2019-01-03T06:44:43.141Z,21.15
2019-01-03T06:46:07.953Z,27.00
2019-01-03T06:47:50.141Z,22.02
2019-01-03T06:49:11.965Z,20.82
2019-01-03T06:50:33.849Z,21.50
2019-01-03T06:51:50.318Z,19.50
2019-01-03T06:53:07.682Z,23.55
2019-01-03T06:54:31.158Z,23.57
2019-01-03T06:56:03.305Z,20.25
2019-01-03T06:57:27.210Z,27.48
2019-01-03T06:58:50.574Z,23.90
2019-01-03T07:00:11.754Z,25.27
2019-01-03T07:01:33.261Z,22.40
2019-01-03T07:02:56.634Z,33.83
2019-01-03T07:04:35.146Z,26.45
2019-01-03T07:06:01.367Z,30.68
2019-01-03T07:07:24.722Z,26.52
2019-01-03T07:08:46.581Z,29.98
2019-01-03T07:10:08.654Z,28.47
2019-01-03T07:11:27.006Z,35.92
2019-01-03T07:12:49.117Z,35.08
2019-01-03T07:14:11.082Z,32.10
2019-01-03T07:15:43.538Z,36.20
2019-01-03T07:17:11.366Z,35.88
2019-01-03T07:18:33.565Z,32.00
2019-01-03T07:20:03.073Z,28.35
2019-01-03T07:21:27.449Z,30.30
2019-01-03T07:22:48.913Z,33.63
2019-01-03T07:24:13.177Z,31.68
2019-01-03T07:25:45.372Z,39.00
2019-01-03T07:27:07.578Z,27.70
2019-01-03T07:28:45.529Z,29.70
2019-01-03T07:30:11.777Z,31.82
2019-01-03T07:31:47.085Z,28.45
2019-01-03T07:33:09.181Z,30.55
2019-01-03T07:34:31.210Z,27.30
2019-01-03T07:35:53.414Z,28.32
2019-01-03T07:37:11.983Z,28.20
2019-01-03T07:38:39.619Z,26.37
2019-01-03T07:40:01.709Z,27.05
2019-01-03T07:41:28.150Z,28.47
2019-01-03T07:42:45.707Z,24.80
2019-01-03T07:44:02.449Z,24.05
2019-01-03T07:45:24.618Z,27.48
2019-01-03T07:46:40.566Z,24.43
2019-01-03T07:47:59.722Z,23.45
2019-01-03T07:49:32.182Z,25.90
2019-01-03T07:50:55.243Z,24.15
2019-01-03T07:52:27.139Z,27.48
2019-01-03T07:53:57.695Z,27.00
2019-01-03T07:55:19.522Z,24.27
2019-01-03T07:56:46.329Z,22.65
2019-01-03T07:58:08.151Z,22.67
2019-01-03T07:59:31.513Z,20.95
2019-01-03T08:00:51.541Z,19.45
2019-01-03T08:02:33.210Z,21.62
2019-01-03T08:04:02.184Z,21.30
2019-01-03T08:05:24.065Z,20.97
2019-01-03T08:06:48.586Z,14.87
2019-01-03T08:08:12.118Z,16.52
2019-01-03T08:09:44.522Z,15.68
2019-01-03T08:11:06.885Z,18.42
2019-01-03T08:12:30.234Z,13.05
2019-01-03T08:13:52.049Z,13.58
2019-01-03T08:15:24.601Z,22.65
2019-01-03T08:16:51.554Z,14.65
2019-01-03T08:18:17.652Z,18.60
2019-01-03T08:19:50.158Z,14.73
2019-01-03T08:21:19.369Z,16.17
2019-01-03T08:22:41.218Z,14.83
2019-01-03T08:24:03.222Z,11.97
2019-01-03T08:25:25.301Z,19.57
2019-01-03T08:26:54.801Z,16.62
2019-01-03T08:28:16.567Z,18.82
2019-01-03T08:29:39.953Z,18.12
2019-01-03T08:31:09.153Z,26.07
2019-01-03T08:32:35.440Z,19.70
2019-01-03T08:33:57.442Z,26.00
2019-01-03T08:35:27.461Z,24.47
2019-01-03T08:36:53.742Z,16.40
2019-01-03T08:38:28.987Z,18.57
2019-01-03T08:40:01.208Z,21.67
2019-01-03T08:41:23.031Z,13.30
2019-01-03T08:42:45.050Z,16.00
2019-01-03T08:44:11.446Z,11.00
2019-01-03T08:45:34.801Z,15.73
2019-01-03T08:47:07.349Z,14.73
2019-01-03T08:48:42.866Z,17.30
2019-01-03T08:50:04.644Z,13.10
2019-01-03T08:51:24.295Z,16.47
2019-01-03T08:52:50.985Z,14.53
2019-01-03T08:54:10.462Z,11.70
2019-01-03T08:55:38.663Z,11.00
2019-01-03T08:57:00.658Z,14.00
2019-01-03T08:58:24.033Z,16.10
2019-01-03T08:59:47.177Z,20.60
2019-01-03T09:01:04.840Z,17.73
2019-01-03T09:02:31.345Z,18.83
2019-01-03T09:03:53.102Z,14.17
2019-01-03T09:05:14.869Z,21.70
2019-01-03T09:06:37.008Z,18.13
2019-01-03T09:07:59.169Z,15.40
2019-01-03T09:09:29.923Z,15.80
2019-01-03T09:10:53.273Z,26.57
2019-01-03T09:12:15.113Z,17.73
2019-01-03T09:13:37.353Z,16.97
2019-01-03T09:15:00.754Z,13.93
2019-01-03T09:16:18.021Z,27.00
2019-01-03T09:17:40.061Z,22.70
2019-01-03T09:19:01.939Z,15.83
2019-01-03T09:20:26.526Z,15.50
2019-01-03T09:21:56.398Z,16.80
2019-01-03T09:23:18.245Z,15.53
2019-01-03T09:24:35.389Z,18.53
2019-01-03T09:25:57.128Z,13.57
2019-01-03T09:27:19.319Z,15.90
2019-01-03T09:28:51.897Z,11.67
2019-01-03T09:30:27.216Z,14.20
2019-01-03T09:31:49.059Z,11.30
2019-01-03T09:33:11.221Z,14.67
2019-01-03T09:34:33.065Z,15.63
2019-01-03T09:35:55.220Z,10.43
2019-01-03T09:37:13.416Z,11.93
2019-01-03T09:38:36.746Z,9.60
2019-01-03T09:40:15.159Z,15.73
2019-01-03T09:41:41.137Z,14.40
2019-01-03T09:43:10.446Z,13.80
2019-01-03T09:44:37.969Z,15.27
2019-01-03T09:45:44.450Z,13.90
2019-01-03T09:46:48.278Z,14.23
2019-01-03T09:47:52.551Z,9.33
2019-01-03T09:48:56.838Z,13.10
2019-01-03T09:50:01.115Z,14.87
2019-01-03T09:51:05.512Z,10.13
2019-01-03T09:52:09.960Z,10.90
2019-01-03T09:53:14.221Z,9.17
2019-01-03T09:54:18.494Z,11.47
2019-01-03T09:55:22.778Z,10.70
2019-01-03T09:56:27.068Z,13.43
2019-01-03T09:57:32.670Z,12.23
2019-01-03T09:58:36.974Z,11.43
2019-01-03T09:59:41.312Z,9.70
2019-01-03T10:00:45.570Z,12.50
2019-01-03T10:01:49.947Z,11.33
2019-01-03T10:02:54.209Z,11.03
2019-01-03T10:03:58.599Z,15.57
2019-01-03T10:05:02.909Z,14.13
2019-01-03T10:06:07.234Z,16.33
2019-01-03T10:07:11.509Z,11.63
2019-01-03T10:08:19.489Z,13.80
2019-01-03T10:09:21.782Z,11.03
2019-01-03T10:10:26.093Z,10.93
2019-01-03T10:11:30.369Z,8.33
2019-01-03T10:12:34.634Z,13.57
2019-01-03T10:13:38.924Z,11.63
2019-01-03T10:14:43.199Z,12.07
2019-01-03T10:15:47.496Z,10.47
2019-01-03T10:16:51.750Z,10.60
2019-01-03T10:17:56.030Z,12.23
2019-01-03T10:19:00.369Z,7.80
2019-01-03T10:20:05.252Z,9.90
2019-01-03T10:21:09.506Z,11.47
2019-01-03T10:22:13.765Z,9.83
2019-01-03T10:23:18.058Z,8.67
2019-01-03T10:24:22.374Z,11.53
2019-01-03T10:25:26.684Z,12.93
2019-01-03T10:26:30.970Z,11.97
2019-01-03T10:27:35.294Z,11.40
2019-01-03T10:28:39.573Z,10.83
2019-01-03T10:29:43.856Z,12.37
2019-01-03T10:30:48.177Z,13.73
2019-01-03T10:31:52.486Z,11.77
2019-01-03T10:32:56.757Z,12.60
2019-01-03T10:34:01.034Z,13.47
2019-01-03T10:35:05.395Z,15.97
2019-01-03T10:36:09.655Z,9.63
2019-01-03T10:37:13.965Z,11.77
2019-01-03T10:38:21.108Z,11.80
2019-01-03T10:39:24.261Z,12.93
2019-01-03T10:40:28.525Z,11.50
2019-01-03T10:41:32.789Z,10.13
2019-01-03T10:42:37.055Z,10.97
2019-01-03T10:43:41.361Z,7.97
2019-01-03T10:44:45.679Z,10.73
2019-01-03T10:45:49.938Z,10.53
2019-01-03T10:46:54.219Z,10.50
2019-01-03T10:47:59.408Z,13.57
2019-01-03T10:49:03.812Z,12.33
2019-01-03T10:50:08.250Z,10.43
2019-01-03T10:51:12.530Z,10.20
2019-01-03T10:52:16.797Z,10.10
2019-01-03T10:53:21.090Z,9.00
2019-01-03T10:54:25.386Z,12.13
2019-01-03T10:55:29.633Z,9.90
2019-01-03T10:56:33.891Z,10.47
2019-01-03T10:57:38.149Z,12.27
2019-01-03T10:58:42.429Z,11.53
2019-01-03T10:59:46.710Z,10.50
2019-01-03T11:00:50.962Z,10.70
2019-01-03T11:01:55.229Z,13.67
2019-01-03T11:02:59.498Z,10.20
2019-01-03T11:04:03.792Z,11.40
2019-01-03T11:05:08.224Z,11.87
2019-01-03T11:06:12.525Z,10.57
2019-01-03T11:07:16.818Z,10.00
2019-01-03T11:08:21.174Z,11.93
2019-01-03T11:09:25.445Z,7.20
2019-01-03T11:10:29.730Z,11.77
2019-01-03T11:11:34.025Z,11.87
2019-01-03T11:12:38.274Z,12.60
2019-01-03T11:13:42.536Z,9.10
2019-01-03T11:14:46.804Z,9.27
2019-01-03T11:15:51.086Z,11.47
2019-01-03T11:16:55.350Z,12.67
2019-01-03T11:17:59.629Z,12.90
2019-01-03T11:19:03.913Z,14.07
2019-01-03T11:20:08.198Z,10.80
2019-01-03T11:21:12.478Z,9.37
2019-01-03T11:22:16.737Z,10.67
2019-01-03T11:23:21.007Z,11.33
2019-01-03T11:24:25.262Z,12.77
2019-01-03T11:25:29.605Z,12.93
2019-01-03T11:26:33.889Z,13.00
2019-01-03T11:27:38.150Z,13.50
2019-01-03T11:28:42.453Z,11.67
2019-01-03T11:29:46.774Z,16.03
2019-01-03T11:30:51.094Z,13.13
2019-01-03T11:31:55.381Z,13.60
2019-01-03T11:32:59.727Z,10.00
2019-01-03T11:34:04.001Z,11.60
2019-01-03T11:35:08.279Z,10.00
2019-01-03T11:36:12.566Z,13.77
2019-01-03T11:37:16.955Z,8.90
2019-01-03T11:38:21.338Z,10.97
2019-01-03T11:39:25.630Z,10.37
2019-01-03T11:40:29.902Z,10.43
2019-01-03T11:41:34.178Z,14.50
2019-01-03T11:42:38.425Z,12.83
2019-01-03T11:43:42.750Z,13.10
2019-01-03T11:44:47.007Z,14.00
2019-01-03T11:45:51.281Z,11.97
2019-01-03T11:46:55.552Z,10.70
2019-01-03T11:47:59.863Z,14.40
2019-01-03T11:49:04.218Z,9.93
2019-01-03T11:50:09.506Z,11.20
2019-01-03T11:51:13.793Z,10.40
2019-01-03T11:52:18.097Z,11.37
2019-01-03T11:53:22.346Z,8.27
2019-01-03T11:54:26.637Z,8.70
2019-01-03T11:55:30.937Z,12.13
2019-01-03T11:56:35.234Z,7.97
2019-01-03T11:57:39.501Z,8.90
2019-01-03T11:58:43.785Z,10.20
2019-01-03T11:59:48.074Z,8.00
2019-01-03T12:00:52.413Z,9.27
2019-01-03T12:01:56.674Z,12.50
2019-01-03T12:03:00.982Z,7.03
2019-01-03T12:04:05.365Z,8.63
2019-01-03T12:05:09.714Z,7.97
2019-01-03T12:06:13.986Z,10.67
2019-01-03T12:07:18.242Z,9.87
2019-01-03T12:08:22.533Z,10.30
2019-01-03T12:09:26.799Z,10.70
2019-01-03T12:10:31.091Z,10.20
2019-01-03T12:11:35.490Z,9.07
2019-01-03T12:12:39.766Z,8.57
2019-01-03T12:13:44.034Z,9.10
2019-01-03T12:14:48.297Z,7.83
2019-01-03T12:15:52.574Z,9.70
2019-01-03T12:16:56.890Z,9.33
2019-01-03T12:18:01.185Z,8.47
2019-01-03T12:19:05.447Z,8.37
2019-01-03T12:20:09.707Z,10.77
2019-01-03T12:21:13.998Z,9.90
2019-01-03T12:22:18.254Z,8.93
2019-01-03T12:23:22.507Z,8.70
2019-01-03T12:24:30.618Z,8.97
2019-01-03T12:25:32.713Z,8.63
2019-01-03T12:26:36.973Z,7.17
2019-01-03T12:27:41.247Z,8.73
2019-01-03T12:28:45.506Z,10.07
2019-01-03T12:29:49.757Z,11.87
2019-01-03T12:30:54.009Z,9.40
2019-01-03T12:31:58.275Z,8.73
2019-01-03T12:33:02.542Z,8.77
2019-01-03T12:34:06.790Z,8.80
2019-01-03T12:35:11.061Z,9.23
2019-01-03T12:36:15.334Z,7.27
2019-01-03T12:37:19.610Z,6.30
2019-01-03T12:38:23.897Z,10.90
2019-01-03T12:39:28.197Z,8.43
2019-01-03T12:40:32.454Z,7.80
2019-01-03T12:41:36.733Z,6.83
2019-01-03T12:42:41.002Z,7.80
2019-01-03T12:43:45.264Z,9.87
2019-01-03T12:44:49.521Z,7.77
2019-01-03T12:45:53.852Z,9.67
2019-01-03T12:46:58.130Z,7.80
2019-01-03T12:48:02.413Z,8.63
2019-01-03T12:49:06.665Z,9.63
2019-01-03T12:50:11.737Z,7.30
2019-01-03T12:51:16.484Z,8.47
2019-01-03T12:52:20.748Z,7.30
2019-01-03T12:53:25.006Z,10.13
2019-01-03T12:54:29.270Z,9.03
2019-01-03T12:55:33.556Z,9.47
2019-01-03T12:56:38.086Z,10.67
2019-01-03T12:57:42.325Z,10.90
2019-01-03T12:58:46.622Z,12.50
2019-01-03T12:59:50.957Z,7.17
2019-01-03T13:00:55.238Z,7.33
2019-01-03T13:01:59.538Z,6.97
2019-01-03T13:03:03.811Z,9.43
2019-01-03T13:04:08.126Z,8.03
2019-01-03T13:05:12.454Z,9.60
2019-01-03T13:06:20.998Z,9.50
2019-01-03T13:07:22.793Z,7.33
2019-01-03T13:08:27.114Z,8.50
2019-01-03T13:09:31.408Z,7.97
2019-01-03T13:10:35.678Z,7.73
2019-01-03T13:11:39.955Z,7.13
2019-01-03T13:12:44.258Z,7.90
2019-01-03T13:13:48.513Z,11.90
2019-01-03T13:14:52.770Z,4.20
2019-01-03T13:15:57.047Z,11.70
2019-01-03T13:17:01.389Z,6.57
2019-01-03T13:18:05.635Z,7.80
2019-01-03T13:19:09.990Z,10.17
2019-01-03T13:20:14.254Z,10.63
2019-01-03T13:21:18.534Z,10.80
2019-01-03T13:22:22.793Z,8.83
2019-01-03T13:23:27.048Z,7.23
2019-01-03T13:24:31.322Z,9.10
2019-01-03T13:25:35.610Z,6.93
2019-01-03T13:26:39.885Z,6.97
2019-01-03T13:27:44.230Z,11.40
2019-01-03T13:28:48.492Z,10.17
2019-01-03T13:29:52.741Z,9.90
2019-01-03T13:30:57.013Z,7.87
2019-01-03T13:32:01.333Z,10.60
2019-01-03T13:33:05.683Z,14.00
2019-01-03T13:34:09.947Z,9.97
2019-01-03T13:35:14.209Z,12.83
2019-01-03T13:36:18.494Z,11.73
2019-01-03T13:37:22.770Z,9.07
2019-01-03T13:38:27.080Z,14.67
2019-01-03T13:39:31.329Z,13.70
2019-01-03T13:40:35.587Z,9.40
2019-01-03T13:41:39.842Z,17.47
2019-01-03T13:42:44.129Z,12.40
2019-01-03T13:43:48.389Z,16.10
2019-01-03T13:44:52.654Z,20.60
2019-01-03T13:45:57.001Z,16.70
2019-01-03T13:47:01.278Z,17.37
2019-01-03T13:48:05.562Z,16.83
2019-01-03T13:49:09.822Z,18.67
2019-01-03T13:50:14.216Z,14.87
2019-01-03T13:51:18.473Z,13.43
2019-01-03T13:52:22.735Z,12.67
2019-01-03T13:53:27.000Z,11.57
2019-01-03T13:54:31.258Z,10.30
2019-01-03T13:55:35.525Z,14.33
2019-01-03T13:56:39.778Z,12.80
2019-01-03T13:57:44.073Z,11.67
2019-01-03T13:58:48.324Z,10.53
2019-01-03T13:59:52.591Z,13.00
2019-01-03T14:00:56.850Z,13.83
2019-01-03T14:02:01.102Z,13.67
2019-01-03T14:03:05.555Z,13.23
2019-01-03T14:04:09.805Z,9.77
2019-01-03T14:05:14.050Z,13.87
2019-01-03T14:06:18.344Z,14.67
2019-01-03T14:07:22.649Z,10.87
2019-01-03T14:08:26.937Z,11.47
2019-01-03T14:09:31.190Z,11.47
2019-01-03T14:10:35.481Z,9.53
2019-01-03T14:11:39.734Z,10.97
2019-01-03T14:12:44.059Z,10.20
2019-01-03T14:13:48.336Z,10.63
2019-01-03T14:14:52.597Z,8.53
2019-01-03T14:15:56.881Z,9.97
2019-01-03T14:17:01.126Z,9.33
2019-01-03T14:18:05.448Z,8.30
2019-01-03T14:19:09.741Z,8.80
2019-01-03T14:20:14.726Z,9.37
2019-01-03T14:21:19.007Z,14.83
2019-01-03T14:22:23.335Z,8.20
2019-01-03T14:23:27.602Z,9.27
2019-01-03T14:24:31.874Z,5.87
2019-01-03T14:25:36.118Z,9.87
2019-01-03T14:26:40.365Z,12.57
2019-01-03T14:27:44.645Z,8.23
2019-01-03T14:28:48.929Z,14.80
2019-01-03T14:29:53.186Z,6.83
2019-01-03T14:30:57.437Z,10.07
2019-01-03T14:32:01.705Z,10.27
2019-01-03T14:33:05.955Z,10.33
2019-01-03T14:34:10.222Z,12.33
2019-01-03T14:35:14.618Z,9.83
2019-01-03T14:36:18.884Z,8.73
2019-01-03T14:37:23.138Z,9.60
2019-01-03T14:38:27.421Z,10.97
2019-01-03T14:39:31.685Z,11.60
2019-01-03T14:40:35.938Z,11.60
2019-01-03T14:41:40.222Z,14.63
2019-01-03T14:42:44.500Z,13.30
2019-01-03T14:43:48.769Z,13.17
2019-01-03T14:44:53.042Z,13.13
2019-01-03T14:45:57.298Z,12.57
2019-01-03T14:47:01.557Z,12.20
2019-01-03T14:48:05.831Z,11.30
2019-01-03T14:49:10.099Z,12.17
2019-01-03T14:50:14.452Z,13.23
2019-01-03T14:51:18.725Z,12.97
2019-01-03T14:52:23.071Z,18.03
2019-01-03T14:53:27.332Z,15.13
2019-01-03T14:54:31.627Z,15.07
2019-01-03T14:55:35.877Z,13.37
2019-01-03T14:56:40.134Z,16.00
2019-01-03T14:57:44.467Z,18.40
2019-01-03T14:58:48.718Z,14.77
2019-01-03T14:59:53.005Z,15.00
2019-01-03T15:00:57.325Z,14.20
2019-01-03T15:02:01.620Z,16.40
2019-01-03T15:03:05.877Z,17.27
2019-01-03T15:04:10.165Z,13.83
2019-01-03T15:05:14.429Z,13.45
2019-01-03T15:06:18.693Z,17.63
2019-01-03T15:07:22.954Z,12.23
2019-01-03T15:08:27.230Z,15.63
2019-01-03T15:09:31.489Z,14.80
2019-01-03T15:10:35.774Z,11.70
2019-01-03T15:11:40.035Z,11.53
2019-01-03T15:12:44.294Z,8.23
2019-01-03T15:13:48.566Z,9.87
2019-01-03T15:14:52.829Z,14.63
2019-01-03T15:15:57.090Z,14.33
2019-01-03T15:17:01.421Z,14.30
2019-01-03T15:18:05.702Z,13.63
2019-01-03T15:19:09.961Z,14.18
2019-01-03T15:20:14.304Z,14.53
2019-01-03T15:21:18.587Z,12.23
2019-01-03T15:22:22.866Z,12.97
2019-01-03T15:23:27.130Z,13.33
2019-01-03T15:24:31.394Z,11.70
2019-01-03T15:25:35.674Z,10.48
2019-01-03T15:26:39.934Z,13.40
2019-01-03T15:27:44.201Z,12.43
2019-01-03T15:28:48.449Z,8.27
2019-01-03T15:29:52.730Z,7.63
2019-01-03T15:30:56.988Z,11.80
2019-01-03T15:32:01.250Z,10.03
2019-01-03T15:33:05.513Z,14.00
2019-01-03T15:34:09.824Z,12.10
2019-01-03T15:35:14.154Z,8.65
2019-01-03T15:36:18.437Z,9.28
2019-01-03T15:37:22.713Z,11.22
2019-01-03T15:38:26.983Z,9.68
2019-01-03T15:39:31.274Z,8.35
2019-01-03T15:40:35.538Z,12.90
2019-01-03T15:41:39.826Z,11.63
2019-01-03T15:42:44.159Z,12.82
2019-01-03T15:43:49.330Z,14.10
2019-01-03T15:44:53.702Z,10.20
2019-01-03T15:45:57.983Z,13.00
2019-01-03T15:47:02.286Z,10.30
2019-01-03T15:48:06.553Z,10.88
2019-01-03T15:49:10.813Z,12.05
2019-01-03T15:50:15.094Z,10.23
2019-01-03T15:51:19.370Z,10.45
2019-01-03T15:52:24.753Z,11.90
2019-01-03T15:53:29.014Z,7.87
2019-01-03T15:54:33.277Z,10.03
2019-01-03T15:55:37.578Z,9.98
2019-01-03T15:56:41.858Z,11.05
2019-01-03T15:57:46.138Z,9.95
2019-01-03T15:58:50.433Z,12.37
2019-01-03T15:59:54.818Z,11.25
2019-01-03T16:00:59.109Z,15.40
2019-01-03T16:02:03.406Z,12.03
2019-01-03T16:03:07.677Z,8.90
2019-01-03T16:04:11.969Z,15.45
2019-01-03T16:05:16.239Z,12.03
2019-01-03T16:06:20.541Z,14.30
2019-01-03T16:07:24.799Z,12.75
2019-01-03T16:08:29.066Z,9.13
2019-01-03T16:09:33.356Z,10.43
2019-01-03T16:10:37.653Z,9.30
2019-01-03T16:11:41.962Z,11.65
2019-01-03T16:12:46.218Z,12.07
2019-01-03T16:13:50.492Z,10.85
2019-01-03T16:14:54.754Z,12.15
2019-01-03T16:15:59.051Z,9.45
2019-01-03T16:17:03.348Z,11.03
2019-01-03T16:18:07.593Z,11.50
2019-01-03T16:19:11.858Z,13.10
2019-01-03T16:20:16.134Z,15.23
2019-01-03T16:21:20.429Z,13.25
2019-01-03T16:22:24.685Z,11.97
2019-01-03T16:23:28.940Z,9.23
2019-01-03T16:24:33.297Z,10.43
2019-01-03T16:25:37.562Z,10.25
2019-01-03T16:26:41.842Z,10.85
2019-01-03T16:27:46.122Z,13.70
2019-01-03T16:28:50.391Z,13.55
2019-01-03T16:29:54.669Z,16.62
2019-01-03T16:30:59.050Z,14.23